Debrecen, Magyarország

2015 Január 25 07:13 PM (CET időzóna) (GMT +0100)
Debrecen | Change Station
CLOSE
Current Station
Personal Weather Stations
Location: Debrecen, HAJDU-BIHAR MEGYE
Elevation: 410 ft
Közeli meteorológiai állomások

Elev 410 ft 47.54 °N, 21.63 °E | Updated 3 minutes ago

Light Rain
Enyhe eső
34.2 °F
Hőérzet 30 °F
N
5.0
Szél: változó Szél: from északkeleti
Gusts 8.0 mph

Ma
High -- | Low -- °F
--% Csapadék valószínű
Tegnapi
High -- | Low -- °F
Precip. -- hvlyk.
7:08 AM 4:23 PM
Növekvő holdsarló, 34% visible
Légnyomás 30.04 hvlyk.
Látótávolság -9999.0 mérföld
Felhők Kevés 400 ft
Borús 900 ft
Hőérzet 30 °F
Harmatpont 31 °F
Páratartalom 89%
Rainfall 0.01 hvlyk.
Hóréteg vastagsága Not available.
UV 0 out of 12
Pollen Not available.
A levegő minősége Not available.
Flu Activity Not available.
METAR LROD 251800Z 01008KT 4900 -RA BR FEW004 OVC009 03/02 Q1017 R01/29//95

More Conditions Fewer Conditions

Légnyomás 30.04 hvlyk.
Látótávolság -9999.0 mérföld
Felhők Kevés 400 ft
Borús 900 ft
Hőérzet 30 °F
Harmatpont 31 °F
Páratartalom 89%
Rainfall 0.01 hvlyk.
Hóréteg vastagsága Not available.
UV 0 out of 12
Pollen Not available.
A levegő minősége Not available.
Flu Activity Not available.
METAR LROD 251800Z 01008KT 4900 -RA BR FEW004 OVC009 03/02 Q1017 R01/29//95

More Conditions Fewer Conditions

10-Day Weather Forecast

Almanac

Csillagászat

Jan. 25, 2015 Kel Nyugszik
Tényleges idő
Civil alkony
Tengerészeti alkony
Csillagászati alkony
Hold
Látható fény időtartama
A nap hossza
Tomorrow will be .
, % of the Moon is Illuminated

Today's Extremes

Country Highs Country Lows

Community

WunderPhotos

Upload Photos

1,790,011 Fotók feltöltve.

WunderBlogs® & News

Nearby

A levegő minősége

  A levegő minősége AQ Index Szennyezőanyag
Not available.

Hóréteg vastagsága

Station Depth Elevation

Earthquake Activity

város Distance Mag. Time & Date
Minimum magnitude displayed is 2.5.

Coastal Water Temperatures

Hely Hőmérséklet

Közeli meteorológiai állomások